createdAt,value
2017-09-23T00:01:49.467Z,30.43
2017-09-23T00:04:17.000Z,24.10
2017-09-23T00:06:44.584Z,23.90
2017-09-23T00:09:12.114Z,25.60
2017-09-23T00:11:39.647Z,29.83
2017-09-23T00:14:07.231Z,23.70
2017-09-23T00:16:34.772Z,24.63
2017-09-23T00:19:03.070Z,25.23
2017-09-23T00:21:30.638Z,24.65
2017-09-23T00:23:58.193Z,26.70
2017-09-23T00:26:26.485Z,23.13
2017-09-23T00:28:54.048Z,22.37
2017-09-23T00:31:21.580Z,24.70
2017-09-23T00:33:49.116Z,26.00
2017-09-23T00:36:16.691Z,22.47
2017-09-23T00:38:45.011Z,24.47
2017-09-23T00:41:14.235Z,21.50
2017-09-23T00:43:41.811Z,24.53
2017-09-23T00:46:09.368Z,26.27
2017-09-23T00:48:37.571Z,24.30
2017-09-23T00:51:05.894Z,21.93
2017-09-23T00:53:33.426Z,29.95
2017-09-23T00:56:00.951Z,29.20
2017-09-23T00:58:29.319Z,29.30
2017-09-23T01:00:56.843Z,26.97
2017-09-23T01:03:24.374Z,32.73
2017-09-23T01:05:51.931Z,29.40
2017-09-23T01:08:19.467Z,26.17
2017-09-23T01:10:47.772Z,31.47
2017-09-23T01:13:15.538Z,34.90
2017-09-23T01:15:43.071Z,27.87
2017-09-23T01:18:11.371Z,29.33
2017-09-23T01:20:38.950Z,29.53
2017-09-23T01:23:06.484Z,33.15
2017-09-23T01:25:34.015Z,35.50
2017-09-23T01:28:01.573Z,29.37
2017-09-23T01:30:29.115Z,25.33
2017-09-23T01:32:56.648Z,28.70
2017-09-23T01:35:24.211Z,25.23
2017-09-23T01:37:51.743Z,23.47
2017-09-23T01:40:20.032Z,27.47
2017-09-23T01:42:47.599Z,28.03
2017-09-23T01:45:15.531Z,26.75
2017-09-23T01:47:43.844Z,26.30
2017-09-23T01:50:11.938Z,25.77
2017-09-23T01:52:39.471Z,29.30
2017-09-23T01:55:07.003Z,33.17
2017-09-23T01:57:35.331Z,25.03
2017-09-23T02:00:02.864Z,28.33
2017-09-23T02:02:30.507Z,20.37
2017-09-23T02:04:58.086Z,22.97
2017-09-23T02:07:25.628Z,26.43
2017-09-23T02:09:53.163Z,21.97
2017-09-23T02:12:20.711Z,24.00
2017-09-23T02:14:48.243Z,25.37
2017-09-23T02:17:16.455Z,26.33
2017-09-23T02:19:44.067Z,22.70
2017-09-23T02:22:11.600Z,21.63
2017-09-23T02:24:39.144Z,28.03
2017-09-23T02:27:06.760Z,22.40
2017-09-23T02:29:34.291Z,24.07
2017-09-23T02:32:01.828Z,19.57
2017-09-23T02:34:29.380Z,20.03
2017-09-23T02:36:56.907Z,18.90
2017-09-23T02:39:24.448Z,18.40
2017-09-23T02:41:52.019Z,19.40
2017-09-23T02:44:19.561Z,18.55
2017-09-23T02:46:47.132Z,21.33
2017-09-23T02:49:16.459Z,18.10
2017-09-23T02:51:44.280Z,20.20
2017-09-23T02:54:11.812Z,21.47
2017-09-23T02:56:40.147Z,17.57
2017-09-23T02:59:07.679Z,18.33
2017-09-23T03:01:35.980Z,17.10
2017-09-23T03:04:03.541Z,18.23
2017-09-23T03:06:31.075Z,17.43
2017-09-23T03:08:58.605Z,17.60
2017-09-23T03:11:26.183Z,18.13
2017-09-23T03:13:54.478Z,20.03
2017-09-23T03:16:22.011Z,16.15
2017-09-23T03:18:49.571Z,19.60
2017-09-23T03:21:17.106Z,19.67
2017-09-23T03:23:44.651Z,24.33
2017-09-23T03:26:12.264Z,16.23
2017-09-23T03:28:39.802Z,17.83
2017-09-23T03:31:07.336Z,20.97
2017-09-23T03:33:34.919Z,18.60
2017-09-23T03:36:02.454Z,18.23
2017-09-23T03:38:29.996Z,16.73
2017-09-23T03:40:57.559Z,17.63
2017-09-23T03:43:25.100Z,15.90
2017-09-23T03:45:52.641Z,17.73
2017-09-23T03:48:20.995Z,14.73
2017-09-23T03:50:48.531Z,19.75
2017-09-23T03:53:17.467Z,15.65
2017-09-23T03:55:45.080Z,16.83
2017-09-23T03:58:13.546Z,15.97
2017-09-23T04:00:41.071Z,15.80
2017-09-23T04:03:09.401Z,16.70
2017-09-23T04:05:36.928Z,16.57
2017-09-23T04:08:04.455Z,20.17
2017-09-23T04:10:32.038Z,16.57
2017-09-23T04:12:59.579Z,15.07
2017-09-23T04:15:27.115Z,15.17
2017-09-23T04:17:54.701Z,18.83
2017-09-23T04:20:22.244Z,14.10
2017-09-23T04:22:49.783Z,14.57
2017-09-23T04:25:17.464Z,17.03
2017-09-23T04:27:45.036Z,18.60
2017-09-23T04:30:12.584Z,17.60
2017-09-23T04:32:40.233Z,14.80
2017-09-23T04:35:08.556Z,15.07
2017-09-23T04:37:36.904Z,14.73
2017-09-23T04:40:04.501Z,15.57
2017-09-23T04:42:32.035Z,17.93
2017-09-23T04:44:59.575Z,14.10
2017-09-23T04:47:27.139Z,17.50
2017-09-23T04:49:54.723Z,14.23
2017-09-23T04:52:22.257Z,13.60
2017-09-23T04:54:50.404Z,15.83
2017-09-23T04:57:17.943Z,18.00
2017-09-23T04:59:45.472Z,17.33
2017-09-23T05:02:15.455Z,18.27
2017-09-23T05:04:42.985Z,17.40
2017-09-23T05:07:10.523Z,17.27
2017-09-23T05:09:38.847Z,15.87
2017-09-23T05:12:06.508Z,16.73
2017-09-23T05:14:34.109Z,14.90
2017-09-23T05:17:02.439Z,14.97
2017-09-23T05:19:30.013Z,15.30
2017-09-23T05:21:57.592Z,16.70
2017-09-23T05:24:25.239Z,14.83
2017-09-23T05:26:52.767Z,14.93
2017-09-23T05:29:20.307Z,13.02
2017-09-23T05:32:00.318Z,15.40
2017-09-23T05:34:27.863Z,15.17
2017-09-23T05:36:55.419Z,15.93
2017-09-23T05:39:23.007Z,16.43
2017-09-23T05:41:50.539Z,15.93
2017-09-23T05:44:18.127Z,14.30
2017-09-23T05:46:45.808Z,14.77
2017-09-23T05:49:24.530Z,13.77
2017-09-23T05:54:40.363Z,18.10
2017-09-23T05:57:08.628Z,13.50
2017-09-23T05:59:36.163Z,16.97
2017-09-23T06:02:03.754Z,14.57
2017-09-23T06:04:31.287Z,19.73
2017-09-23T06:06:58.823Z,15.60
2017-09-23T06:09:26.428Z,15.83
2017-09-23T06:11:53.968Z,18.63
2017-09-23T06:14:22.277Z,17.73
2017-09-23T06:16:49.849Z,14.13
2017-09-23T06:19:17.387Z,12.90
2017-09-23T06:21:44.931Z,14.37
2017-09-23T06:24:14.216Z,12.27
2017-09-23T06:26:41.761Z,14.77
2017-09-23T06:29:09.302Z,12.03
2017-09-23T06:31:36.872Z,11.30
2017-09-23T06:34:04.411Z,12.60
2017-09-23T06:36:31.982Z,11.77
2017-09-23T06:38:59.571Z,12.20
2017-09-23T06:41:27.196Z,12.30
2017-09-23T06:43:54.729Z,11.33
2017-09-23T06:46:22.375Z,18.33
2017-09-23T06:48:49.939Z,16.30
2017-09-23T06:51:17.480Z,12.65
2017-09-23T06:53:45.834Z,14.63
2017-09-23T06:56:15.450Z,16.62
2017-09-23T06:58:43.790Z,21.23
2017-09-23T07:01:11.339Z,16.03
2017-09-23T07:03:38.999Z,12.30
2017-09-23T07:06:06.533Z,12.15
2017-09-23T07:08:34.875Z,11.43
2017-09-23T07:11:02.436Z,14.03
2017-09-23T07:13:29.959Z,12.43
2017-09-23T07:15:57.519Z,11.87
2017-09-23T07:18:25.057Z,12.00
2017-09-23T07:20:53.351Z,12.35
2017-09-23T07:23:20.961Z,16.85
2017-09-23T07:25:48.510Z,12.73
2017-09-23T07:28:16.563Z,12.77
2017-09-23T07:30:44.410Z,14.70
2017-09-23T07:33:12.007Z,10.40
2017-09-23T07:35:39.540Z,12.47
2017-09-23T07:38:07.100Z,12.57
2017-09-23T07:40:34.739Z,20.67
2017-09-23T07:43:02.275Z,12.00
2017-09-23T07:45:29.836Z,11.50
2017-09-23T07:47:57.395Z,10.00
2017-09-23T07:50:24.939Z,11.43
2017-09-23T07:52:52.552Z,14.23
2017-09-23T07:55:20.098Z,11.80
2017-09-23T07:57:47.663Z,12.47
2017-09-23T08:00:17.843Z,10.35
2017-09-23T08:02:45.403Z,10.00
2017-09-23T08:05:25.347Z,10.30
2017-09-23T08:11:02.764Z,10.43
2017-09-23T08:13:30.300Z,11.25
2017-09-23T08:15:57.827Z,17.60
2017-09-23T08:18:25.394Z,10.93
2017-09-23T08:20:52.941Z,16.40
2017-09-23T08:23:20.487Z,10.10
2017-09-23T08:25:48.065Z,12.73
2017-09-23T08:28:16.418Z,11.87
2017-09-23T08:30:43.947Z,11.87
2017-09-23T08:33:11.539Z,16.90
2017-09-23T08:35:39.079Z,11.10
2017-09-23T08:38:06.607Z,12.20
2017-09-23T08:40:34.171Z,11.17
2017-09-23T08:43:01.711Z,11.00
2017-09-23T08:45:29.242Z,9.90
2017-09-23T08:47:56.854Z,9.70
2017-09-23T08:50:24.503Z,9.57
2017-09-23T08:52:52.037Z,11.70
2017-09-23T08:55:20.739Z,11.07
2017-09-23T08:57:48.273Z,13.30
2017-09-23T09:00:17.418Z,10.76
2017-09-23T09:02:45.610Z,10.93
2017-09-23T09:05:15.508Z,11.25
2017-09-23T09:07:43.038Z,11.13
2017-09-23T09:10:10.599Z,13.75
2017-09-23T09:12:38.139Z,12.50
2017-09-23T09:15:06.448Z,17.07
2017-09-23T09:17:34.036Z,12.57
2017-09-23T09:20:01.567Z,12.90
2017-09-23T09:22:29.099Z,15.00
2017-09-23T09:24:56.660Z,14.20
2017-09-23T09:27:24.985Z,15.13
2017-09-23T09:29:52.524Z,13.27
2017-09-23T09:32:22.264Z,20.27
2017-09-23T09:34:51.037Z,15.47
2017-09-23T09:37:19.039Z,21.15
2017-09-23T09:39:46.655Z,15.73
2017-09-23T09:42:16.288Z,16.48
2017-09-23T09:44:43.819Z,16.83
2017-09-23T09:47:11.378Z,16.77
2017-09-23T09:49:38.914Z,19.07
2017-09-23T09:52:07.220Z,18.67
2017-09-23T09:54:34.779Z,18.33
2017-09-23T09:57:02.324Z,20.03
2017-09-23T09:59:29.855Z,21.20
2017-09-23T10:01:57.478Z,23.10
2017-09-23T10:04:25.356Z,21.27
2017-09-23T10:06:52.889Z,22.07
2017-09-23T10:09:22.226Z,20.96
2017-09-23T10:11:49.762Z,19.20
2017-09-23T10:14:17.309Z,26.40
2017-09-23T10:16:44.883Z,22.00
2017-09-23T10:19:12.556Z,29.07
2017-09-23T10:21:40.366Z,25.20
2017-09-23T10:24:08.731Z,24.70
2017-09-23T10:26:36.267Z,30.30
2017-09-23T10:29:03.796Z,26.37
2017-09-23T10:31:31.419Z,26.90
2017-09-23T10:33:58.984Z,30.27
2017-09-23T10:36:27.447Z,26.55
2017-09-23T10:38:55.006Z,27.13
2017-09-23T10:41:23.228Z,37.95
2017-09-23T10:43:50.773Z,26.70
2017-09-23T10:46:18.374Z,24.77
2017-09-23T10:48:45.937Z,28.70
2017-09-23T10:51:15.371Z,26.20
2017-09-23T10:53:42.935Z,24.90
2017-09-23T10:56:10.475Z,24.87
2017-09-23T10:58:42.830Z,27.73
2017-09-23T11:01:10.422Z,26.63
2017-09-23T11:03:38.036Z,27.63
2017-09-23T11:06:10.163Z,28.77
2017-09-23T11:08:40.166Z,27.80
2017-09-23T11:11:07.703Z,25.60
2017-09-23T11:13:35.447Z,29.17
2017-09-23T11:16:03.784Z,27.57
2017-09-23T11:18:33.559Z,32.42
2017-09-23T11:21:01.099Z,28.83
2017-09-23T11:23:29.423Z,27.80
2017-09-23T11:25:57.722Z,27.57
2017-09-23T11:28:27.044Z,27.15
2017-09-23T11:30:54.655Z,33.10
2017-09-23T11:33:22.194Z,32.60
2017-09-23T11:35:49.727Z,23.97
2017-09-23T11:38:17.291Z,24.60
2017-09-23T11:40:44.823Z,27.30
2017-09-23T11:43:12.384Z,36.73
2017-09-23T11:45:40.706Z,31.50
2017-09-23T11:48:08.243Z,28.83
2017-09-23T11:50:35.774Z,28.87
2017-09-23T11:53:03.367Z,31.23
2017-09-23T11:55:31.663Z,31.13
2017-09-23T11:57:59.193Z,29.30
2017-09-23T12:00:26.749Z,27.60
2017-09-23T12:02:54.284Z,27.60
2017-09-23T12:05:21.819Z,31.43
2017-09-23T12:07:49.964Z,31.03
2017-09-23T12:10:17.501Z,27.62
2017-09-23T12:12:45.051Z,25.50
2017-09-23T12:15:12.763Z,36.77
2017-09-23T12:17:40.522Z,31.43
2017-09-23T12:20:08.053Z,28.37
2017-09-23T12:22:35.616Z,27.10
2017-09-23T12:25:03.155Z,27.60
2017-09-23T12:27:31.455Z,34.43
2017-09-23T12:29:59.015Z,27.67
2017-09-23T12:32:26.556Z,38.35
2017-09-23T12:34:54.091Z,41.63
2017-09-23T12:37:21.702Z,32.33
2017-09-23T12:39:49.240Z,37.70
2017-09-23T12:42:17.548Z,32.27
2017-09-23T12:44:45.107Z,37.87
2017-09-23T12:47:12.636Z,30.40
2017-09-23T12:49:40.168Z,32.90
2017-09-23T12:52:07.727Z,29.83
2017-09-23T12:54:35.310Z,34.70
2017-09-23T12:57:03.610Z,36.87
2017-09-23T12:59:31.194Z,35.20
2017-09-23T13:01:58.724Z,31.87
2017-09-23T13:04:26.287Z,27.87
2017-09-23T13:06:53.871Z,28.90
2017-09-23T13:09:21.627Z,28.40
2017-09-23T13:11:49.227Z,28.43
2017-09-23T13:14:16.800Z,27.73
2017-09-23T13:16:44.330Z,28.63
2017-09-23T13:19:11.859Z,41.30
2017-09-23T13:21:39.550Z,27.63
2017-09-23T13:24:07.108Z,33.53
2017-09-23T13:26:34.647Z,27.47
2017-09-23T13:29:02.226Z,30.13
2017-09-23T13:31:29.756Z,36.10
2017-09-23T13:33:57.289Z,33.47
2017-09-23T13:36:25.614Z,30.90
2017-09-23T13:38:53.150Z,33.30
2017-09-23T13:41:20.680Z,38.15
2017-09-23T13:43:48.267Z,36.00
2017-09-23T13:46:17.280Z,29.93
2017-09-23T13:48:44.825Z,32.30
2017-09-23T13:51:12.404Z,28.47
2017-09-23T13:53:39.939Z,46.90
2017-09-23T13:56:07.555Z,81.28
2017-09-23T13:58:35.116Z,51.60
2017-09-23T14:01:03.090Z,34.85
2017-09-23T14:03:32.137Z,36.60
2017-09-23T14:05:59.729Z,27.25
2017-09-23T14:08:27.269Z,29.13
2017-09-23T14:10:54.838Z,92.17
2017-09-23T14:13:22.406Z,30.57
2017-09-23T14:15:49.943Z,27.10
2017-09-23T14:18:17.475Z,27.60
2017-09-23T14:20:45.800Z,26.40
2017-09-23T14:23:26.184Z,24.30
2017-09-23T14:29:19.259Z,47.67
2017-09-23T14:31:46.815Z,30.40
2017-09-23T14:34:16.309Z,38.07
2017-09-23T14:36:43.924Z,76.03
2017-09-23T14:39:11.579Z,36.83
2017-09-23T14:41:39.900Z,39.53
2017-09-23T14:44:07.521Z,34.13
2017-09-23T14:46:35.104Z,33.70
2017-09-23T14:49:02.665Z,31.13
2017-09-23T14:51:30.280Z,34.45
2017-09-23T14:53:57.873Z,39.23
2017-09-23T14:56:25.446Z,38.63
2017-09-23T14:58:53.084Z,30.40
2017-09-23T15:01:21.438Z,28.08
2017-09-23T15:03:49.003Z,30.73
2017-09-23T15:06:16.650Z,53.05
2017-09-23T15:08:44.273Z,40.70
2017-09-23T15:11:12.494Z,36.53
2017-09-23T15:13:40.916Z,36.57
2017-09-23T15:16:08.520Z,42.25
2017-09-23T15:18:36.132Z,35.43
2017-09-23T15:21:04.137Z,35.67
2017-09-23T15:23:31.890Z,46.67
2017-09-23T15:26:00.277Z,36.30
2017-09-23T15:28:27.961Z,37.87
2017-09-23T15:30:55.576Z,36.10
2017-09-23T15:33:23.177Z,36.37
2017-09-23T15:35:51.076Z,41.03
2017-09-23T15:38:19.418Z,41.22
2017-09-23T15:40:46.984Z,34.63
2017-09-23T15:43:16.376Z,35.30
2017-09-23T15:45:43.959Z,58.90
2017-09-23T15:48:11.708Z,46.25
2017-09-23T15:50:39.455Z,42.50
2017-09-23T15:53:07.821Z,41.73
2017-09-23T15:55:36.617Z,35.57
2017-09-23T15:58:05.566Z,39.80
2017-09-23T16:00:34.020Z,37.10
2017-09-23T16:03:01.653Z,35.80
2017-09-23T16:05:29.299Z,33.80
2017-09-23T16:07:57.440Z,34.50
2017-09-23T16:10:26.610Z,36.33
2017-09-23T16:12:55.027Z,45.57
2017-09-23T16:15:23.343Z,38.22
2017-09-23T16:17:50.884Z,32.90
2017-09-23T16:20:19.316Z,47.05
2017-09-23T16:22:46.876Z,41.50
2017-09-23T16:25:16.827Z,37.12
2017-09-23T16:27:45.159Z,49.63
2017-09-23T16:30:12.939Z,33.07
2017-09-23T16:32:40.544Z,38.43
2017-09-23T16:35:08.220Z,40.80
2017-09-23T16:37:35.761Z,36.70
2017-09-23T16:40:03.312Z,35.07
2017-09-23T16:42:31.688Z,36.50
2017-09-23T16:44:59.252Z,39.07
2017-09-23T16:47:27.572Z,39.40
2017-09-23T16:49:55.919Z,48.93
2017-09-23T16:52:23.480Z,45.80
2017-09-23T16:54:51.784Z,44.17
2017-09-23T16:57:20.143Z,42.57
2017-09-23T16:59:47.696Z,44.20
2017-09-23T17:02:17.239Z,42.03
2017-09-23T17:04:44.864Z,52.43
2017-09-23T17:07:12.424Z,48.90
2017-09-23T17:09:39.985Z,47.30
2017-09-23T17:12:08.335Z,55.37
2017-09-23T17:14:36.361Z,50.33
2017-09-23T17:17:03.912Z,47.60
2017-09-23T17:19:31.480Z,43.72
2017-09-23T17:21:59.040Z,51.40
2017-09-23T17:24:26.861Z,44.37
2017-09-23T17:26:54.534Z,47.80
2017-09-23T17:29:22.084Z,56.93
2017-09-23T17:31:50.407Z,44.67
2017-09-23T17:34:17.993Z,54.83
2017-09-23T17:36:45.548Z,51.20
2017-09-23T17:39:14.696Z,44.30
2017-09-23T17:41:42.303Z,52.80
2017-09-23T17:44:09.856Z,40.43
2017-09-23T17:46:37.412Z,49.60
2017-09-23T17:49:05.024Z,48.60
2017-09-23T17:51:32.603Z,46.47
2017-09-23T17:54:00.157Z,50.10
2017-09-23T17:56:27.749Z,52.37
2017-09-23T17:58:55.310Z,43.53
2017-09-23T18:01:22.872Z,42.70
2017-09-23T18:03:50.509Z,45.70
2017-09-23T18:06:18.068Z,39.10
2017-09-23T18:08:45.616Z,48.60
2017-09-23T18:11:14.629Z,42.90
2017-09-23T18:13:42.189Z,51.47
2017-09-23T18:16:09.777Z,51.77
2017-09-23T18:18:37.348Z,36.00
2017-09-23T18:21:04.885Z,49.73
2017-09-23T18:23:32.432Z,50.67
2017-09-23T18:25:59.996Z,41.73
2017-09-23T18:28:27.540Z,45.60
2017-09-23T18:30:55.097Z,36.83
2017-09-23T18:33:22.715Z,39.75
2017-09-23T18:35:50.251Z,41.10
2017-09-23T18:38:18.713Z,34.17
2017-09-23T18:40:46.287Z,38.40
2017-09-23T18:43:15.484Z,41.72
2017-09-23T18:45:43.019Z,40.87
2017-09-23T18:48:10.599Z,48.72
2017-09-23T18:50:38.131Z,47.33
2017-09-23T18:53:05.674Z,50.10
2017-09-23T18:55:33.263Z,47.20
2017-09-23T18:58:00.795Z,42.13
2017-09-23T19:00:29.152Z,43.10
2017-09-23T19:02:56.704Z,45.27
2017-09-23T19:05:24.233Z,47.80
2017-09-23T19:07:51.771Z,44.83
2017-09-23T19:10:19.398Z,38.93
2017-09-23T19:12:46.998Z,38.87
2017-09-23T19:15:15.541Z,50.00
2017-09-23T19:17:43.171Z,42.40
2017-09-23T19:20:10.755Z,40.80
2017-09-23T19:22:38.400Z,44.80
2017-09-23T19:25:06.046Z,44.27
2017-09-23T19:27:33.615Z,44.70
2017-09-23T19:30:01.197Z,39.77
2017-09-23T19:32:28.759Z,45.00
2017-09-23T19:34:56.396Z,45.50
2017-09-23T19:37:23.939Z,54.20
2017-09-23T19:39:51.526Z,53.05
2017-09-23T19:42:19.236Z,64.57
2017-09-23T19:44:47.583Z,52.10
2017-09-23T19:47:17.297Z,52.38
2017-09-23T19:49:44.835Z,53.70
2017-09-23T19:52:12.444Z,53.23
2017-09-23T19:54:40.846Z,54.47
2017-09-23T19:57:08.438Z,57.17
2017-09-23T19:59:35.967Z,48.63
2017-09-23T20:02:03.669Z,58.42
2017-09-23T20:04:31.359Z,74.37
2017-09-23T20:06:58.968Z,49.10
2017-09-23T20:09:26.581Z,46.77
2017-09-23T20:11:54.135Z,57.63
2017-09-23T20:14:21.671Z,54.97
2017-09-23T20:16:49.310Z,63.77
2017-09-23T20:19:16.979Z,57.23
2017-09-23T20:21:44.535Z,55.30
2017-09-23T20:24:12.595Z,63.67
2017-09-23T20:26:40.132Z,60.80
2017-09-23T20:29:07.668Z,61.83
2017-09-23T20:31:35.228Z,62.60
2017-09-23T20:34:02.778Z,62.37
2017-09-23T20:36:30.322Z,61.83
2017-09-23T20:38:57.882Z,59.17
2017-09-23T20:41:25.416Z,67.40
2017-09-23T20:43:52.950Z,57.00
2017-09-23T20:46:20.537Z,49.70
2017-09-23T20:48:48.075Z,64.00
2017-09-23T20:51:17.200Z,78.75
2017-09-23T20:53:44.781Z,78.20
2017-09-23T20:56:12.307Z,64.77
2017-09-23T20:58:39.852Z,69.70
2017-09-23T21:01:07.455Z,67.00
2017-09-23T21:03:34.987Z,60.73
2017-09-23T21:06:02.524Z,61.35
2017-09-23T21:08:30.116Z,61.40
2017-09-23T21:10:58.020Z,54.57
2017-09-23T21:13:25.563Z,62.88
2017-09-23T21:15:53.127Z,73.57
2017-09-23T21:18:20.660Z,65.97
2017-09-23T21:20:48.624Z,61.50
2017-09-23T21:23:17.237Z,68.77
2017-09-23T21:25:44.767Z,65.30
2017-09-23T21:28:12.295Z,57.13
2017-09-23T21:30:39.883Z,59.83
2017-09-23T21:33:07.427Z,64.85
2017-09-23T21:35:35.728Z,58.97
2017-09-23T21:38:03.310Z,60.47
2017-09-23T21:40:30.919Z,55.93
2017-09-23T21:42:58.455Z,56.33
2017-09-23T21:45:26.011Z,64.73
2017-09-23T21:47:53.543Z,57.00
2017-09-23T21:50:21.081Z,58.93
2017-09-23T21:52:48.677Z,54.27
2017-09-23T21:55:16.474Z,59.27
2017-09-23T21:57:44.007Z,67.23
2017-09-23T22:00:11.577Z,59.72
2017-09-23T22:02:39.114Z,66.77
2017-09-23T22:05:06.644Z,56.70
2017-09-23T22:07:34.223Z,56.20
2017-09-23T22:10:01.755Z,70.50
2017-09-23T22:12:29.290Z,60.80
2017-09-23T22:14:56.912Z,62.93
2017-09-23T22:17:24.447Z,60.83
2017-09-23T22:19:51.987Z,67.67
2017-09-23T22:22:20.192Z,72.15
2017-09-23T22:24:47.731Z,62.07
2017-09-23T22:27:17.253Z,67.53
2017-09-23T22:29:44.821Z,66.27
2017-09-23T22:32:12.373Z,68.30
2017-09-23T22:34:40.004Z,74.17
2017-09-23T22:37:07.771Z,68.07
2017-09-23T22:39:36.136Z,80.60
2017-09-23T22:42:03.736Z,82.63
2017-09-23T22:44:31.372Z,70.50
2017-09-23T22:46:59.848Z,71.67
2017-09-23T22:49:27.544Z,73.63
2017-09-23T22:51:55.213Z,78.00
2017-09-23T22:54:23.620Z,74.13
2017-09-23T22:56:51.220Z,78.60
2017-09-23T22:59:19.700Z,65.03
2017-09-23T23:01:47.332Z,65.10
2017-09-23T23:04:17.310Z,66.37
2017-09-23T23:06:45.067Z,64.03
2017-09-23T23:09:12.686Z,74.00
2017-09-23T23:11:40.364Z,58.57
2017-09-23T23:14:08.893Z,72.83
2017-09-23T23:16:36.480Z,65.47
2017-09-23T23:19:04.037Z,63.97
2017-09-23T23:21:31.736Z,64.45
2017-09-23T23:24:00.444Z,68.70
2017-09-23T23:26:28.056Z,68.17
2017-09-23T23:28:55.681Z,66.77
2017-09-23T23:31:23.266Z,66.83
2017-09-23T23:33:50.819Z,61.57
2017-09-23T23:36:18.420Z,56.57
2017-09-23T23:38:46.051Z,59.00
2017-09-23T23:41:24.468Z,55.75
2017-09-23T23:48:33.230Z,62.57
2017-09-23T23:51:00.830Z,54.53
2017-09-23T23:53:28.556Z,64.37
2017-09-23T23:55:56.152Z,62.33
2017-09-23T23:58:23.727Z,65.43
